sensor_id;sensor_type;location;lat;lon;timestamp;temperature;humidity
67557;DHT22;54387;53.526;49.300;2023-04-19T00:02:09;7.30;34.20
67557;DHT22;54387;53.526;49.300;2023-04-19T00:04:36;7.20;34.10
67557;DHT22;54387;53.526;49.300;2023-04-19T00:07:03;7.20;34.10
67557;DHT22;54387;53.526;49.300;2023-04-19T00:09:29;7.20;34.20
67557;DHT22;54387;53.526;49.300;2023-04-19T00:11:55;7.20;34.40
67557;DHT22;54387;53.526;49.300;2023-04-19T00:14:22;7.10;34.50
67557;DHT22;54387;53.526;49.300;2023-04-19T00:16:48;7.10;34.40
67557;DHT22;54387;53.526;49.300;2023-04-19T00:19:14;7.10;34.60
67557;DHT22;54387;53.526;49.300;2023-04-19T00:21:40;7.00;34.70
67557;DHT22;54387;53.526;49.300;2023-04-19T00:24:07;7.00;34.60
67557;DHT22;54387;53.526;49.300;2023-04-19T00:26:33;7.00;34.70
67557;DHT22;54387;53.526;49.300;2023-04-19T00:28:59;6.90;34.60
67557;DHT22;54387;53.526;49.300;2023-04-19T00:31:25;6.90;34.80
67557;DHT22;54387;53.526;49.300;2023-04-19T00:33:51;6.90;34.90
67557;DHT22;54387;53.526;49.300;2023-04-19T00:36:18;6.90;35.00
67557;DHT22;54387;53.526;49.300;2023-04-19T00:38:44;6.90;34.90
67557;DHT22;54387;53.526;49.300;2023-04-19T00:41:10;6.80;35.00
67557;DHT22;54387;53.526;49.300;2023-04-19T00:43:37;6.80;35.20
67557;DHT22;54387;53.526;49.300;2023-04-19T00:46:03;6.80;35.20
67557;DHT22;54387;53.526;49.300;2023-04-19T00:48:30;6.80;35.10
67557;DHT22;54387;53.526;49.300;2023-04-19T00:50:56;6.80;35.10
67557;DHT22;54387;53.526;49.300;2023-04-19T00:53:22;6.80;35.10
67557;DHT22;54387;53.526;49.300;2023-04-19T00:55:49;6.80;35.30
67557;DHT22;54387;53.526;49.300;2023-04-19T00:58:18;6.70;35.40
67557;DHT22;54387;53.526;49.300;2023-04-19T01:00:44;6.70;35.30
67557;DHT22;54387;53.526;49.300;2023-04-19T01:03:10;6.70;35.50
67557;DHT22;54387;53.526;49.300;2023-04-19T01:05:38;6.60;35.40
67557;DHT22;54387;53.526;49.300;2023-04-19T01:08:04;6.60;35.60
67557;DHT22;54387;53.526;49.300;2023-04-19T01:10:31;6.60;35.60
67557;DHT22;54387;53.526;49.300;2023-04-19T01:12:57;6.50;35.60
67557;DHT22;54387;53.526;49.300;2023-04-19T01:15:24;6.50;35.80
67557;DHT22;54387;53.526;49.300;2023-04-19T01:17:51;6.40;35.80
67557;DHT22;54387;53.526;49.300;2023-04-19T01:20:17;6.40;35.90
67557;DHT22;54387;53.526;49.300;2023-04-19T01:22:43;6.40;36.00
67557;DHT22;54387;53.526;49.300;2023-04-19T01:25:09;6.30;36.00
67557;DHT22;54387;53.526;49.300;2023-04-19T01:27:36;6.30;36.10
67557;DHT22;54387;53.526;49.300;2023-04-19T01:30:02;6.30;36.20
67557;DHT22;54387;53.526;49.300;2023-04-19T01:32:28;6.30;36.30
67557;DHT22;54387;53.526;49.300;2023-04-19T01:34:55;6.20;36.20
67557;DHT22;54387;53.526;49.300;2023-04-19T01:37:21;6.20;36.20
67557;DHT22;54387;53.526;49.300;2023-04-19T01:39:47;6.20;36.30
67557;DHT22;54387;53.526;49.300;2023-04-19T01:42:14;6.20;37.40
67557;DHT22;54387;53.526;49.300;2023-04-19T01:44:40;6.10;36.40
67557;DHT22;54387;53.526;49.300;2023-04-19T01:47:06;6.10;36.50
67557;DHT22;54387;53.526;49.300;2023-04-19T01:49:33;6.10;36.60
67557;DHT22;54387;53.526;49.300;2023-04-19T01:51:59;6.10;36.80
67557;DHT22;54387;53.526;49.300;2023-04-19T01:54:25;6.10;36.90
67557;DHT22;54387;53.526;49.300;2023-04-19T01:56:51;6.00;36.80
67557;DHT22;54387;53.526;49.300;2023-04-19T01:59:18;6.10;36.90
67557;DHT22;54387;53.526;49.300;2023-04-19T02:01:44;6.10;36.90
67557;DHT22;54387;53.526;49.300;2023-04-19T02:04:10;6.10;36.90
67557;DHT22;54387;53.526;49.300;2023-04-19T02:06:36;6.10;37.10
67557;DHT22;54387;53.526;49.300;2023-04-19T02:09:02;6.10;37.00
67557;DHT22;54387;53.526;49.300;2023-04-19T02:11:29;6.10;37.10
67557;DHT22;54387;53.526;49.300;2023-04-19T02:13:55;6.20;37.10
67557;DHT22;54387;53.526;49.300;2023-04-19T02:16:21;6.20;37.10
67557;DHT22;54387;53.526;49.300;2023-04-19T02:18:47;6.20;37.10
67557;DHT22;54387;53.526;49.300;2023-04-19T02:21:14;6.20;37.10
67557;DHT22;54387;53.526;49.300;2023-04-19T02:23:40;6.20;38.10
67557;DHT22;54387;53.526;49.300;2023-04-19T02:26:06;6.30;37.20
67557;DHT22;54387;53.526;49.300;2023-04-19T02:28:32;6.30;37.10
67557;DHT22;54387;53.526;49.300;2023-04-19T02:31:02;6.40;37.20
67557;DHT22;54387;53.526;49.300;2023-04-19T02:33:28;6.40;37.10
67557;DHT22;54387;53.526;49.300;2023-04-19T02:35:54;6.50;37.20
67557;DHT22;54387;53.526;49.300;2023-04-19T02:38:21;6.50;37.20
67557;DHT22;54387;53.526;49.300;2023-04-19T02:40:47;6.60;37.30
67557;DHT22;54387;53.526;49.300;2023-04-19T02:43:13;6.60;37.30
67557;DHT22;54387;53.526;49.300;2023-04-19T02:45:39;6.70;37.10
67557;DHT22;54387;53.526;49.300;2023-04-19T02:48:06;6.70;37.10
67557;DHT22;54387;53.526;49.300;2023-04-19T02:50:35;6.80;37.00
67557;DHT22;54387;53.526;49.300;2023-04-19T02:53:01;6.90;37.00
67557;DHT22;54387;53.526;49.300;2023-04-19T02:55:28;6.90;36.90
67557;DHT22;54387;53.526;49.300;2023-04-19T02:57:54;7.00;37.00
67557;DHT22;54387;53.526;49.300;2023-04-19T03:00:20;7.10;37.10
67557;DHT22;54387;53.526;49.300;2023-04-19T03:02:46;7.20;37.00
67557;DHT22;54387;53.526;49.300;2023-04-19T03:05:13;7.30;37.00
67557;DHT22;54387;53.526;49.300;2023-04-19T03:07:39;7.30;37.00
67557;DHT22;54387;53.526;49.300;2023-04-19T03:10:05;7.50;37.20
67557;DHT22;54387;53.526;49.300;2023-04-19T03:12:32;7.60;37.00
67557;DHT22;54387;53.526;49.300;2023-04-19T03:14:58;7.70;37.10
67557;DHT22;54387;53.526;49.300;2023-04-19T03:17:24;7.80;37.00
67557;DHT22;54387;53.526;49.300;2023-04-19T03:19:50;7.90;37.00
67557;DHT22;54387;53.526;49.300;2023-04-19T03:22:17;8.00;36.90
67557;DHT22;54387;53.526;49.300;2023-04-19T03:24:43;8.10;36.70
67557;DHT22;54387;53.526;49.300;2023-04-19T03:27:09;8.20;36.50
67557;DHT22;54387;53.526;49.300;2023-04-19T03:29:35;8.30;36.40
67557;DHT22;54387;53.526;49.300;2023-04-19T03:32:02;8.40;36.30
67557;DHT22;54387;53.526;49.300;2023-04-19T03:34:28;8.60;36.10
67557;DHT22;54387;53.526;49.300;2023-04-19T03:36:54;8.70;36.00
67557;DHT22;54387;53.526;49.300;2023-04-19T03:39:21;8.80;35.90
67557;DHT22;54387;53.526;49.300;2023-04-19T03:41:47;8.90;35.80
67557;DHT22;54387;53.526;49.300;2023-04-19T03:44:13;9.10;35.70
67557;DHT22;54387;53.526;49.300;2023-04-19T03:46:40;9.20;35.60
67557;DHT22;54387;53.526;49.300;2023-04-19T03:49:06;9.30;35.10
67557;DHT22;54387;53.526;49.300;2023-04-19T03:51:32;9.50;34.80
67557;DHT22;54387;53.526;49.300;2023-04-19T03:53:59;9.70;34.50
67557;DHT22;54387;53.526;49.300;2023-04-19T03:56:25;9.80;34.30
67557;DHT22;54387;53.526;49.300;2023-04-19T03:58:51;10.00;34.00
67557;DHT22;54387;53.526;49.300;2023-04-19T04:01:18;10.20;33.60
67557;DHT22;54387;53.526;49.300;2023-04-19T04:03:44;10.30;33.20
67557;DHT22;54387;53.526;49.300;2023-04-19T04:06:10;10.50;33.00
67557;DHT22;54387;53.526;49.300;2023-04-19T04:08:37;10.60;32.60
67557;DHT22;54387;53.526;49.300;2023-04-19T04:11:03;10.80;32.30
67557;DHT22;54387;53.526;49.300;2023-04-19T04:13:29;10.90;31.70
67557;DHT22;54387;53.526;49.300;2023-04-19T04:15:55;11.00;31.40
67557;DHT22;54387;53.526;49.300;2023-04-19T04:18:22;11.10;31.00
67557;DHT22;54387;53.526;49.300;2023-04-19T04:20:48;11.20;31.10
67557;DHT22;54387;53.526;49.300;2023-04-19T04:23:14;11.30;31.00
67557;DHT22;54387;53.526;49.300;2023-04-19T04:25:41;11.30;30.90
67557;DHT22;54387;53.526;49.300;2023-04-19T04:28:07;11.40;30.40
67557;DHT22;54387;53.526;49.300;2023-04-19T04:30:34;11.50;30.30
67557;DHT22;54387;53.526;49.300;2023-04-19T04:33:01;11.60;30.20
67557;DHT22;54387;53.526;49.300;2023-04-19T04:35:27;11.60;30.00
67557;DHT22;54387;53.526;49.300;2023-04-19T04:37:54;11.70;29.90
67557;DHT22;54387;53.526;49.300;2023-04-19T04:40:21;11.80;29.70
67557;DHT22;54387;53.526;49.300;2023-04-19T04:42:47;11.80;29.70
67557;DHT22;54387;53.526;49.300;2023-04-19T04:45:14;11.80;29.70
67557;DHT22;54387;53.526;49.300;2023-04-19T04:47:43;11.90;29.70
67557;DHT22;54387;53.526;49.300;2023-04-19T04:50:11;11.90;29.60
67557;DHT22;54387;53.526;49.300;2023-04-19T04:52:37;11.90;29.60
67557;DHT22;54387;53.526;49.300;2023-04-19T04:55:04;12.00;29.70
67557;DHT22;54387;53.526;49.300;2023-04-19T04:57:31;12.00;29.70
67557;DHT22;54387;53.526;49.300;2023-04-19T04:59:57;12.00;29.70
67557;DHT22;54387;53.526;49.300;2023-04-19T05:02:23;12.10;29.80
67557;DHT22;54387;53.526;49.300;2023-04-19T05:04:50;12.10;29.80
67557;DHT22;54387;53.526;49.300;2023-04-19T05:07:16;12.10;29.80
67557;DHT22;54387;53.526;49.300;2023-04-19T05:09:43;12.10;29.90
67557;DHT22;54387;53.526;49.300;2023-04-19T05:12:09;12.20;29.90
67557;DHT22;54387;53.526;49.300;2023-04-19T05:14:35;12.20;29.90
67557;DHT22;54387;53.526;49.300;2023-04-19T05:17:02;12.20;29.90
67557;DHT22;54387;53.526;49.300;2023-04-19T05:19:28;12.20;30.00
67557;DHT22;54387;53.526;49.300;2023-04-19T05:21:54;12.20;29.90
67557;DHT22;54387;53.526;49.300;2023-04-19T05:24:20;12.30;31.00
67557;DHT22;54387;53.526;49.300;2023-04-19T05:26:47;12.30;30.00
67557;DHT22;54387;53.526;49.300;2023-04-19T05:29:13;12.30;30.00
67557;DHT22;54387;53.526;49.300;2023-04-19T05:31:39;12.40;30.00
67557;DHT22;54387;53.526;49.300;2023-04-19T05:34:06;12.40;30.00
67557;DHT22;54387;53.526;49.300;2023-04-19T05:36:32;12.40;30.00
67557;DHT22;54387;53.526;49.300;2023-04-19T05:38:58;12.50;30.00
67557;DHT22;54387;53.526;49.300;2023-04-19T05:41:24;12.60;30.00
67557;DHT22;54387;53.526;49.300;2023-04-19T05:43:50;12.70;30.00
67557;DHT22;54387;53.526;49.300;2023-04-19T05:46:17;12.70;30.00
67557;DHT22;54387;53.526;49.300;2023-04-19T05:48:45;12.80;29.90
67557;DHT22;54387;53.526;49.300;2023-04-19T05:51:12;12.90;29.90
67557;DHT22;54387;53.526;49.300;2023-04-19T05:53:39;13.00;29.80
67557;DHT22;54387;53.526;49.300;2023-04-19T05:56:05;13.10;29.90
67557;DHT22;54387;53.526;49.300;2023-04-19T05:58:32;13.10;29.60
67557;DHT22;54387;53.526;49.300;2023-04-19T06:00:58;13.10;29.60
67557;DHT22;54387;53.526;49.300;2023-04-19T06:03:24;13.20;29.60
67557;DHT22;54387;53.526;49.300;2023-04-19T06:05:51;13.30;29.60
67557;DHT22;54387;53.526;49.300;2023-04-19T06:08:17;13.30;29.60
67557;DHT22;54387;53.526;49.300;2023-04-19T06:10:44;13.40;29.60
67557;DHT22;54387;53.526;49.300;2023-04-19T06:13:12;13.50;29.50
67557;DHT22;54387;53.526;49.300;2023-04-19T06:15:39;13.50;29.40
67557;DHT22;54387;53.526;49.300;2023-04-19T06:18:05;13.60;29.40
67557;DHT22;54387;53.526;49.300;2023-04-19T06:20:35;13.70;29.40
67557;DHT22;54387;53.526;49.300;2023-04-19T06:23:02;13.80;29.30
67557;DHT22;54387;53.526;49.300;2023-04-19T06:25:28;13.90;29.30
67557;DHT22;54387;53.526;49.300;2023-04-19T06:27:54;13.90;29.10
67557;DHT22;54387;53.526;49.300;2023-04-19T06:30:20;14.00;28.90
67557;DHT22;54387;53.526;49.300;2023-04-19T06:32:47;14.10;29.00
67557;DHT22;54387;53.526;49.300;2023-04-19T06:35:13;14.20;29.10
67557;DHT22;54387;53.526;49.300;2023-04-19T06:37:40;14.20;29.00
67557;DHT22;54387;53.526;49.300;2023-04-19T06:40:06;14.30;28.90
67557;DHT22;54387;53.526;49.300;2023-04-19T06:42:33;14.40;28.90
67557;DHT22;54387;53.526;49.300;2023-04-19T06:45:00;14.50;28.70
67557;DHT22;54387;53.526;49.300;2023-04-19T06:47:26;14.50;28.50
67557;DHT22;54387;53.526;49.300;2023-04-19T06:49:53;14.50;28.50
67557;DHT22;54387;53.526;49.300;2023-04-19T06:52:19;14.60;28.50
67557;DHT22;54387;53.526;49.300;2023-04-19T06:54:46;14.60;28.30
67557;DHT22;54387;53.526;49.300;2023-04-19T06:57:12;14.70;27.90
67557;DHT22;54387;53.526;49.300;2023-04-19T06:59:39;14.80;27.70
67557;DHT22;54387;53.526;49.300;2023-04-19T07:02:05;14.80;26.90
67557;DHT22;54387;53.526;49.300;2023-04-19T07:04:32;14.80;26.50
67557;DHT22;54387;53.526;49.300;2023-04-19T07:06:58;14.90;26.60
67557;DHT22;54387;53.526;49.300;2023-04-19T07:09:25;14.90;26.50
67557;DHT22;54387;53.526;49.300;2023-04-19T07:11:51;15.00;26.60
67557;DHT22;54387;53.526;49.300;2023-04-19T07:14:17;15.10;26.60
67557;DHT22;54387;53.526;49.300;2023-04-19T07:16:46;15.10;26.50
67557;DHT22;54387;53.526;49.300;2023-04-19T07:19:13;15.20;25.70
67557;DHT22;54387;53.526;49.300;2023-04-19T07:21:39;15.30;25.80
67557;DHT22;54387;53.526;49.300;2023-04-19T07:24:08;15.40;25.70
67557;DHT22;54387;53.526;49.300;2023-04-19T07:26:34;15.40;25.10
67557;DHT22;54387;53.526;49.300;2023-04-19T07:29:01;15.50;24.80
67557;DHT22;54387;53.526;49.300;2023-04-19T07:31:27;15.50;24.30
67557;DHT22;54387;53.526;49.300;2023-04-19T07:33:54;15.50;24.10
67557;DHT22;54387;53.526;49.300;2023-04-19T07:36:20;15.50;24.10
67557;DHT22;54387;53.526;49.300;2023-04-19T07:38:46;15.50;24.10
67557;DHT22;54387;53.526;49.300;2023-04-19T07:41:12;15.50;24.10
67557;DHT22;54387;53.526;49.300;2023-04-19T07:43:39;15.50;24.20
67557;DHT22;54387;53.526;49.300;2023-04-19T07:46:09;15.60;24.30
67557;DHT22;54387;53.526;49.300;2023-04-19T07:48:36;15.70;24.20
67557;DHT22;54387;53.526;49.300;2023-04-19T07:51:13;15.70;23.80
67557;DHT22;54387;53.526;49.300;2023-04-19T07:53:39;15.70;23.70
67557;DHT22;54387;53.526;49.300;2023-04-19T07:56:09;15.80;23.70
67557;DHT22;54387;53.526;49.300;2023-04-19T07:58:36;15.90;23.60
67557;DHT22;54387;53.526;49.300;2023-04-19T08:01:03;15.90;23.20
67557;DHT22;54387;53.526;49.300;2023-04-19T08:03:29;16.00;23.10
67557;DHT22;54387;53.526;49.300;2023-04-19T08:05:56;16.00;23.00
67557;DHT22;54387;53.526;49.300;2023-04-19T08:08:23;16.00;23.10
67557;DHT22;54387;53.526;49.300;2023-04-19T08:10:51;16.10;22.90
67557;DHT22;54387;53.526;49.300;2023-04-19T08:13:20;16.10;23.00
67557;DHT22;54387;53.526;49.300;2023-04-19T08:15:46;16.20;23.10
67557;DHT22;54387;53.526;49.300;2023-04-19T08:18:12;16.20;23.10
67557;DHT22;54387;53.526;49.300;2023-04-19T08:20:38;16.20;23.20
67557;DHT22;54387;53.526;49.300;2023-04-19T08:23:07;16.30;22.80
67557;DHT22;54387;53.526;49.300;2023-04-19T08:25:33;16.30;23.00
67557;DHT22;54387;53.526;49.300;2023-04-19T08:28:00;16.40;23.00
67557;DHT22;54387;53.526;49.300;2023-04-19T08:30:26;16.40;22.90
67557;DHT22;54387;53.526;49.300;2023-04-19T08:32:53;16.50;22.60
67557;DHT22;54387;53.526;49.300;2023-04-19T08:35:19;16.50;22.40
67557;DHT22;54387;53.526;49.300;2023-04-19T08:37:46;16.50;22.50
67557;DHT22;54387;53.526;49.300;2023-04-19T08:40:13;16.50;22.50
67557;DHT22;54387;53.526;49.300;2023-04-19T08:42:39;16.60;22.30
67557;DHT22;54387;53.526;49.300;2023-04-19T08:45:06;16.60;22.30
67557;DHT22;54387;53.526;49.300;2023-04-19T08:47:33;16.70;22.40
67557;DHT22;54387;53.526;49.300;2023-04-19T08:50:00;16.70;22.20
67557;DHT22;54387;53.526;49.300;2023-04-19T08:52:27;16.90;22.00
67557;DHT22;54387;53.526;49.300;2023-04-19T08:54:54;16.80;21.70
67557;DHT22;54387;53.526;49.300;2023-04-19T08:57:21;16.80;21.80
67557;DHT22;54387;53.526;49.300;2023-04-19T08:59:47;16.80;21.60
67557;DHT22;54387;53.526;49.300;2023-04-19T09:02:17;16.80;21.70
67557;DHT22;54387;53.526;49.300;2023-04-19T09:04:44;16.70;21.80
67557;DHT22;54387;53.526;49.300;2023-04-19T09:07:21;16.80;22.10
67557;DHT22;54387;53.526;49.300;2023-04-19T09:09:47;16.90;22.10
67557;DHT22;54387;53.526;49.300;2023-04-19T09:12:28;16.90;22.10
67557;DHT22;54387;53.526;49.300;2023-04-19T09:14:55;17.00;22.30
67557;DHT22;54387;53.526;49.300;2023-04-19T09:17:21;17.20;22.00
67557;DHT22;54387;53.526;49.300;2023-04-19T09:19:48;17.30;22.00
67557;DHT22;54387;53.526;49.300;2023-04-19T09:22:14;17.70;22.10
67557;DHT22;54387;53.526;49.300;2023-04-19T09:24:41;18.20;22.00
67557;DHT22;54387;53.526;49.300;2023-04-19T09:27:07;19.10;21.80
67557;DHT22;54387;53.526;49.300;2023-04-19T09:29:37;20.20;21.30
67557;DHT22;54387;53.526;49.300;2023-04-19T09:32:03;21.90;20.00
67557;DHT22;54387;53.526;49.300;2023-04-19T09:34:29;23.70;18.90
67557;DHT22;54387;53.526;49.300;2023-04-19T09:36:55;25.50;17.90
67557;DHT22;54387;53.526;49.300;2023-04-19T09:39:31;27.30;18.10
67557;DHT22;54387;53.526;49.300;2023-04-19T09:41:57;29.10;16.40
67557;DHT22;54387;53.526;49.300;2023-04-19T09:44:24;30.10;15.50
67557;DHT22;54387;53.526;49.300;2023-04-19T09:46:50;30.60;15.30
67557;DHT22;54387;53.526;49.300;2023-04-19T09:51:49;32.60;15.20
67557;DHT22;54387;53.526;49.300;2023-04-19T09:54:16;33.60;14.70
67557;DHT22;54387;53.526;49.300;2023-04-19T09:56:43;34.50;14.60
67557;DHT22;54387;53.526;49.300;2023-04-19T09:59:10;35.60;14.70
67557;DHT22;54387;53.526;49.300;2023-04-19T10:01:47;36.70;14.20
67557;DHT22;54387;53.526;49.300;2023-04-19T10:04:16;37.70;14.30
67557;DHT22;54387;53.526;49.300;2023-04-19T10:06:50;39.00;14.00
67557;DHT22;54387;53.526;49.300;2023-04-19T10:09:17;39.80;13.60
67557;DHT22;54387;53.526;49.300;2023-04-19T10:11:46;40.70;12.90
67557;DHT22;54387;53.526;49.300;2023-04-19T10:14:14;40.90;12.90
67557;DHT22;54387;53.526;49.300;2023-04-19T10:16:40;41.10;12.70
67557;DHT22;54387;53.526;49.300;2023-04-19T10:19:10;41.40;12.80
67557;DHT22;54387;53.526;49.300;2023-04-19T10:21:38;42.10;13.30
67557;DHT22;54387;53.526;49.300;2023-04-19T10:24:05;43.00;13.10
67557;DHT22;54387;53.526;49.300;2023-04-19T10:27:04;43.60;12.60
67557;DHT22;54387;53.526;49.300;2023-04-19T10:29:53;43.70;12.40
67557;DHT22;54387;53.526;49.300;2023-04-19T10:32:04;43.50;12.30
67557;DHT22;54387;53.526;49.300;2023-04-19T10:34:38;43.20;12.20
67557;DHT22;54387;53.526;49.300;2023-04-19T10:37:04;43.10;12.30
67557;DHT22;54387;53.526;49.300;2023-04-19T10:39:42;43.30;12.20
67557;DHT22;54387;53.526;49.300;2023-04-19T10:42:09;42.90;11.90
67557;DHT22;54387;53.526;49.300;2023-04-19T10:44:35;42.60;12.30
67557;DHT22;54387;53.526;49.300;2023-04-19T10:47:01;42.90;12.20
67557;DHT22;54387;53.526;49.300;2023-04-19T10:49:30;42.90;11.90
67557;DHT22;54387;53.526;49.300;2023-04-19T10:51:56;42.70;12.00
67557;DHT22;54387;53.526;49.300;2023-04-19T10:57:02;42.80;11.60
67557;DHT22;54387;53.526;49.300;2023-04-19T10:59:39;42.50;11.80
67557;DHT22;54387;53.526;49.300;2023-04-19T11:07:14;41.00;11.50
67557;DHT22;54387;53.526;49.300;2023-04-19T11:09:43;40.40;11.60
67557;DHT22;54387;53.526;49.300;2023-04-19T11:12:11;39.90;11.80
67557;DHT22;54387;53.526;49.300;2023-04-19T11:14:42;39.90;11.90
67557;DHT22;54387;53.526;49.300;2023-04-19T11:19:44;40.10;11.60
67557;DHT22;54387;53.526;49.300;2023-04-19T11:22:17;39.40;11.70
67557;DHT22;54387;53.526;49.300;2023-04-19T11:24:44;38.60;11.80
67557;DHT22;54387;53.526;49.300;2023-04-19T11:27:11;37.20;11.60
67557;DHT22;54387;53.526;49.300;2023-04-19T11:29:37;35.20;11.60
67557;DHT22;54387;53.526;49.300;2023-04-19T11:32:03;32.90;11.70
67557;DHT22;54387;53.526;49.300;2023-04-19T11:34:34;30.80;12.20
67557;DHT22;54387;53.526;49.300;2023-04-19T11:37:00;28.80;12.60
67557;DHT22;54387;53.526;49.300;2023-04-19T11:39:27;27.00;14.00
67557;DHT22;54387;53.526;49.300;2023-04-19T11:41:53;25.70;13.30
67557;DHT22;54387;53.526;49.300;2023-04-19T11:44:20;24.90;13.60
67557;DHT22;54387;53.526;49.300;2023-04-19T11:46:58;24.40;14.00
67557;DHT22;54387;53.526;49.300;2023-04-19T11:49:26;23.90;14.60
67557;DHT22;54387;53.526;49.300;2023-04-19T11:51:56;23.50;14.90
67557;DHT22;54387;53.526;49.300;2023-04-19T11:54:23;23.50;14.90
67557;DHT22;54387;53.526;49.300;2023-04-19T11:56:57;24.20;15.00
67557;DHT22;54387;53.526;49.300;2023-04-19T11:59:23;25.00;14.70
67557;DHT22;54387;53.526;49.300;2023-04-19T12:01:50;25.70;14.40
67557;DHT22;54387;53.526;49.300;2023-04-19T12:04:16;26.00;14.20
67557;DHT22;54387;53.526;49.300;2023-04-19T12:06:42;25.80;14.10
67557;DHT22;54387;53.526;49.300;2023-04-19T12:09:09;25.70;13.90
67557;DHT22;54387;53.526;49.300;2023-04-19T12:11:42;25.30;14.00
67557;DHT22;54387;53.526;49.300;2023-04-19T12:14:10;24.90;14.00
67557;DHT22;54387;53.526;49.300;2023-04-19T12:16:37;24.80;14.20
67557;DHT22;54387;53.526;49.300;2023-04-19T12:19:16;24.70;14.30
67557;DHT22;54387;53.526;49.300;2023-04-19T12:21:44;24.50;14.30
67557;DHT22;54387;53.526;49.300;2023-04-19T12:24:10;24.50;14.50
67557;DHT22;54387;53.526;49.300;2023-04-19T12:26:41;24.60;14.40
67557;DHT22;54387;53.526;49.300;2023-04-19T12:29:17;24.70;14.40
67557;DHT22;54387;53.526;49.300;2023-04-19T12:31:43;24.50;14.50
67557;DHT22;54387;53.526;49.300;2023-04-19T12:34:09;24.70;14.50
67557;DHT22;54387;53.526;49.300;2023-04-19T12:36:35;25.40;14.60
67557;DHT22;54387;53.526;49.300;2023-04-19T12:39:02;26.20;14.50
67557;DHT22;54387;53.526;49.300;2023-04-19T12:41:28;27.00;14.20
67557;DHT22;54387;53.526;49.300;2023-04-19T12:43:54;27.40;13.90
67557;DHT22;54387;53.526;49.300;2023-04-19T12:46:21;27.40;13.60
67557;DHT22;54387;53.526;49.300;2023-04-19T12:48:47;27.00;13.80
67557;DHT22;54387;53.526;49.300;2023-04-19T12:51:13;26.60;13.80
67557;DHT22;54387;53.526;49.300;2023-04-19T12:53:40;27.20;14.20
67557;DHT22;54387;53.526;49.300;2023-04-19T12:56:06;28.40;14.10
67557;DHT22;54387;53.526;49.300;2023-04-19T12:58:34;30.00;14.40
67557;DHT22;54387;53.526;49.300;2023-04-19T13:01:00;31.30;13.70
67557;DHT22;54387;53.526;49.300;2023-04-19T13:03:27;32.40;13.50
67557;DHT22;54387;53.526;49.300;2023-04-19T13:05:57;33.50;13.60
67557;DHT22;54387;53.526;49.300;2023-04-19T13:08:23;34.50;13.40
67557;DHT22;54387;53.526;49.300;2023-04-19T13:10:50;35.30;12.90
67557;DHT22;54387;53.526;49.300;2023-04-19T13:13:16;35.50;12.70
67557;DHT22;54387;53.526;49.300;2023-04-19T13:15:43;35.50;12.50
67557;DHT22;54387;53.526;49.300;2023-04-19T13:18:10;35.20;12.30
67557;DHT22;54387;53.526;49.300;2023-04-19T13:20:36;34.90;12.50
67557;DHT22;54387;53.526;49.300;2023-04-19T13:23:03;34.60;12.60
67557;DHT22;54387;53.526;49.300;2023-04-19T13:25:29;34.00;12.30
67557;DHT22;54387;53.526;49.300;2023-04-19T13:27:55;33.20;12.30
67557;DHT22;54387;53.526;49.300;2023-04-19T13:30:21;32.60;12.40
67557;DHT22;54387;53.526;49.300;2023-04-19T13:32:48;32.30;12.70
67557;DHT22;54387;53.526;49.300;2023-04-19T13:35:14;32.30;12.70
67557;DHT22;54387;53.526;49.300;2023-04-19T13:37:40;32.20;12.40
67557;DHT22;54387;53.526;49.300;2023-04-19T13:40:09;32.10;12.50
67557;DHT22;54387;53.526;49.300;2023-04-19T13:42:36;32.10;12.50
67557;DHT22;54387;53.526;49.300;2023-04-19T13:45:02;31.90;12.40
67557;DHT22;54387;53.526;49.300;2023-04-19T13:47:28;31.40;12.40
67557;DHT22;54387;53.526;49.300;2023-04-19T13:49:55;30.70;12.40
67557;DHT22;54387;53.526;49.300;2023-04-19T13:52:21;30.20;12.60
67557;DHT22;54387;53.526;49.300;2023-04-19T13:54:48;29.60;12.60
67557;DHT22;54387;53.526;49.300;2023-04-19T13:57:14;29.20;12.80
67557;DHT22;54387;53.526;49.300;2023-04-19T13:59:41;28.60;12.80
67557;DHT22;54387;53.526;49.300;2023-04-19T14:02:07;27.90;12.70
67557;DHT22;54387;53.526;49.300;2023-04-19T14:04:33;27.20;12.80
67557;DHT22;54387;53.526;49.300;2023-04-19T14:07:00;26.80;13.00
67557;DHT22;54387;53.526;49.300;2023-04-19T14:09:26;26.60;13.20
67557;DHT22;54387;53.526;49.300;2023-04-19T14:11:52;26.50;13.30
67557;DHT22;54387;53.526;49.300;2023-04-19T14:14:19;26.60;13.30
67557;DHT22;54387;53.526;49.300;2023-04-19T14:16:45;26.70;13.30
67557;DHT22;54387;53.526;49.300;2023-04-19T14:19:12;26.60;13.30
67557;DHT22;54387;53.526;49.300;2023-04-19T14:21:38;26.20;13.20
67557;DHT22;54387;53.526;49.300;2023-04-19T14:24:04;25.80;13.30
67557;DHT22;54387;53.526;49.300;2023-04-19T14:26:30;25.40;13.40
67557;DHT22;54387;53.526;49.300;2023-04-19T14:28:57;25.30;13.60
67557;DHT22;54387;53.526;49.300;2023-04-19T14:31:23;25.20;13.70
67557;DHT22;54387;53.526;49.300;2023-04-19T14:33:49;25.00;13.60
67557;DHT22;54387;53.526;49.300;2023-04-19T14:36:15;24.60;13.70
67557;DHT22;54387;53.526;49.300;2023-04-19T14:38:42;24.40;13.90
67557;DHT22;54387;53.526;49.300;2023-04-19T14:41:08;24.20;13.90
67557;DHT22;54387;53.526;49.300;2023-04-19T14:43:35;24.00;14.10
67557;DHT22;54387;53.526;49.300;2023-04-19T14:46:01;23.60;14.20
67557;DHT22;54387;53.526;49.300;2023-04-19T14:48:28;23.20;14.30
67557;DHT22;54387;53.526;49.300;2023-04-19T14:50:54;22.90;14.60
67557;DHT22;54387;53.526;49.300;2023-04-19T14:53:20;22.60;14.70
67557;DHT22;54387;53.526;49.300;2023-04-19T14:55:47;22.50;14.80
67557;DHT22;54387;53.526;49.300;2023-04-19T14:58:13;22.20;14.80
67557;DHT22;54387;53.526;49.300;2023-04-19T15:00:39;21.90;14.90
67557;DHT22;54387;53.526;49.300;2023-04-19T15:03:05;21.50;15.00
67557;DHT22;54387;53.526;49.300;2023-04-19T15:05:33;21.10;15.10
67557;DHT22;54387;53.526;49.300;2023-04-19T15:07:59;20.70;15.30
67557;DHT22;54387;53.526;49.300;2023-04-19T15:10:26;20.30;15.50
67557;DHT22;54387;53.526;49.300;2023-04-19T15:12:52;19.90;15.70
67557;DHT22;54387;53.526;49.300;2023-04-19T15:15:18;19.50;15.80
67557;DHT22;54387;53.526;49.300;2023-04-19T15:17:44;19.20;15.90
67557;DHT22;54387;53.526;49.300;2023-04-19T15:20:11;18.90;16.10
67557;DHT22;54387;53.526;49.300;2023-04-19T15:22:37;18.60;16.70
67557;DHT22;54387;53.526;49.300;2023-04-19T15:25:03;18.30;16.90
67557;DHT22;54387;53.526;49.300;2023-04-19T15:27:30;18.10;17.00
67557;DHT22;54387;53.526;49.300;2023-04-19T15:29:56;17.80;16.90
67557;DHT22;54387;53.526;49.300;2023-04-19T15:32:22;17.50;17.20